sensor_id;sensor_type;location;lat;lon;timestamp;temperature;humidity
12329;DHT22;6230;52.390;10.256;2022-08-20T00:01:43;25.40;58.20
12329;DHT22;6230;52.390;10.256;2022-08-20T00:04:10;25.30;58.20
12329;DHT22;6230;52.390;10.256;2022-08-20T00:06:35;25.30;58.20
12329;DHT22;6230;52.390;10.256;2022-08-20T00:09:03;25.30;58.20
12329;DHT22;6230;52.390;10.256;2022-08-20T00:11:28;25.20;58.20
12329;DHT22;6230;52.390;10.256;2022-08-20T00:13:57;25.20;58.20
12329;DHT22;6230;52.390;10.256;2022-08-20T00:16:25;25.20;58.20
12329;DHT22;6230;52.390;10.256;2022-08-20T00:18:51;25.20;58.10
12329;DHT22;6230;52.390;10.256;2022-08-20T00:21:18;25.20;58.10
12329;DHT22;6230;52.390;10.256;2022-08-20T00:23:47;25.10;58.20
12329;DHT22;6230;52.390;10.256;2022-08-20T00:26:12;25.10;58.20
12329;DHT22;6230;52.390;10.256;2022-08-20T00:28:38;25.10;58.30
12329;DHT22;6230;52.390;10.256;2022-08-20T00:31:06;25.00;58.30
12329;DHT22;6230;52.390;10.256;2022-08-20T00:33:33;25.10;58.30
12329;DHT22;6230;52.390;10.256;2022-08-20T00:35:59;25.10;58.30
12329;DHT22;6230;52.390;10.256;2022-08-20T00:38:32;25.00;58.30
12329;DHT22;6230;52.390;10.256;2022-08-20T00:40:59;25.00;58.40
12329;DHT22;6230;52.390;10.256;2022-08-20T00:43:30;25.00;58.50
12329;DHT22;6230;52.390;10.256;2022-08-20T00:45:58;25.00;58.50
12329;DHT22;6230;52.390;10.256;2022-08-20T00:48:26;25.00;58.40
12329;DHT22;6230;52.390;10.256;2022-08-20T00:50:58;25.00;58.40
12329;DHT22;6230;52.390;10.256;2022-08-20T00:53:24;25.00;58.40
12329;DHT22;6230;52.390;10.256;2022-08-20T00:55:51;24.90;58.40
12329;DHT22;6230;52.390;10.256;2022-08-20T00:58:17;24.90;58.40
12329;DHT22;6230;52.390;10.256;2022-08-20T01:00:45;24.90;58.50
12329;DHT22;6230;52.390;10.256;2022-08-20T01:03:14;24.90;58.50
12329;DHT22;6230;52.390;10.256;2022-08-20T01:05:43;24.90;58.50
12329;DHT22;6230;52.390;10.256;2022-08-20T01:08:10;24.90;58.50
12329;DHT22;6230;52.390;10.256;2022-08-20T01:10:38;24.90;58.50
12329;DHT22;6230;52.390;10.256;2022-08-20T01:13:09;24.90;58.50
12329;DHT22;6230;52.390;10.256;2022-08-20T01:15:38;24.90;58.60
12329;DHT22;6230;52.390;10.256;2022-08-20T01:18:05;24.80;58.50
12329;DHT22;6230;52.390;10.256;2022-08-20T01:26:16;24.90;58.90
12329;DHT22;6230;52.390;10.256;2022-08-20T01:28:47;24.80;58.80
12329;DHT22;6230;52.390;10.256;2022-08-20T01:31:17;24.80;58.80
12329;DHT22;6230;52.390;10.256;2022-08-20T01:33:44;24.80;58.80
12329;DHT22;6230;52.390;10.256;2022-08-20T01:36:11;24.80;58.90
12329;DHT22;6230;52.390;10.256;2022-08-20T01:38:37;24.80;59.00
12329;DHT22;6230;52.390;10.256;2022-08-20T01:43:47;24.80;59.10
12329;DHT22;6230;52.390;10.256;2022-08-20T01:46:13;24.80;59.20
12329;DHT22;6230;52.390;10.256;2022-08-20T01:48:40;24.80;59.10
12329;DHT22;6230;52.390;10.256;2022-08-20T01:51:18;24.80;59.80
12329;DHT22;6230;52.390;10.256;2022-08-20T01:53:48;24.80;59.30
12329;DHT22;6230;52.390;10.256;2022-08-20T01:56:18;24.80;59.30
12329;DHT22;6230;52.390;10.256;2022-08-20T01:58:46;24.80;59.30
12329;DHT22;6230;52.390;10.256;2022-08-20T02:01:19;24.80;59.30
12329;DHT22;6230;52.390;10.256;2022-08-20T02:03:45;24.80;59.40
12329;DHT22;6230;52.390;10.256;2022-08-20T02:06:11;24.70;59.40
12329;DHT22;6230;52.390;10.256;2022-08-20T02:08:37;24.70;59.50
12329;DHT22;6230;52.390;10.256;2022-08-20T02:11:02;24.70;59.50
12329;DHT22;6230;52.390;10.256;2022-08-20T02:13:28;24.70;59.60
12329;DHT22;6230;52.390;10.256;2022-08-20T02:15:53;24.70;59.60
12329;DHT22;6230;52.390;10.256;2022-08-20T02:18:19;24.70;59.60
12329;DHT22;6230;52.390;10.256;2022-08-20T02:20:46;24.70;59.60
12329;DHT22;6230;52.390;10.256;2022-08-20T02:23:13;24.70;59.60
12329;DHT22;6230;52.390;10.256;2022-08-20T02:25:41;24.70;59.60
12329;DHT22;6230;52.390;10.256;2022-08-20T02:28:10;24.70;59.80
12329;DHT22;6230;52.390;10.256;2022-08-20T02:30:40;24.70;59.80
12329;DHT22;6230;52.390;10.256;2022-08-20T02:33:08;24.60;59.70
12329;DHT22;6230;52.390;10.256;2022-08-20T02:35:34;24.60;59.80
12329;DHT22;6230;52.390;10.256;2022-08-20T02:38:00;24.60;59.90
12329;DHT22;6230;52.390;10.256;2022-08-20T02:40:27;24.60;60.00
12329;DHT22;6230;52.390;10.256;2022-08-20T02:42:54;24.50;60.10
12329;DHT22;6230;52.390;10.256;2022-08-20T02:45:20;24.50;60.10
12329;DHT22;6230;52.390;10.256;2022-08-20T02:47:47;24.50;60.10
12329;DHT22;6230;52.390;10.256;2022-08-20T02:50:16;24.50;60.10
12329;DHT22;6230;52.390;10.256;2022-08-20T02:52:43;24.50;60.30
12329;DHT22;6230;52.390;10.256;2022-08-20T02:55:09;24.50;60.20
12329;DHT22;6230;52.390;10.256;2022-08-20T02:57:35;24.50;60.40
12329;DHT22;6230;52.390;10.256;2022-08-20T03:00:05;24.50;60.50
12329;DHT22;6230;52.390;10.256;2022-08-20T03:02:31;24.50;60.50
12329;DHT22;6230;52.390;10.256;2022-08-20T03:04:57;24.50;60.60
12329;DHT22;6230;52.390;10.256;2022-08-20T03:07:22;24.50;60.60
12329;DHT22;6230;52.390;10.256;2022-08-20T03:09:48;24.50;60.60
12329;DHT22;6230;52.390;10.256;2022-08-20T03:12:13;24.50;61.40
12329;DHT22;6230;52.390;10.256;2022-08-20T03:14:39;24.50;60.60
12329;DHT22;6230;52.390;10.256;2022-08-20T03:17:05;24.40;60.50
12329;DHT22;6230;52.390;10.256;2022-08-20T03:19:31;24.40;60.60
12329;DHT22;6230;52.390;10.256;2022-08-20T03:21:56;24.40;60.60
12329;DHT22;6230;52.390;10.256;2022-08-20T03:24:22;24.40;60.70
12329;DHT22;6230;52.390;10.256;2022-08-20T03:26:48;24.40;60.70
12329;DHT22;6230;52.390;10.256;2022-08-20T03:29:13;24.40;60.80
12329;DHT22;6230;52.390;10.256;2022-08-20T03:31:39;24.40;60.80
12329;DHT22;6230;52.390;10.256;2022-08-20T03:34:05;24.40;60.90
12329;DHT22;6230;52.390;10.256;2022-08-20T03:36:30;24.40;61.00
12329;DHT22;6230;52.390;10.256;2022-08-20T03:38:58;24.40;61.00
12329;DHT22;6230;52.390;10.256;2022-08-20T03:41:24;24.40;61.10
12329;DHT22;6230;52.390;10.256;2022-08-20T03:43:50;24.40;61.10
12329;DHT22;6230;52.390;10.256;2022-08-20T03:46:15;24.40;61.20
12329;DHT22;6230;52.390;10.256;2022-08-20T03:48:41;24.30;61.20
12329;DHT22;6230;52.390;10.256;2022-08-20T03:51:07;24.30;61.20
12329;DHT22;6230;52.390;10.256;2022-08-20T03:53:32;24.30;61.20
12329;DHT22;6230;52.390;10.256;2022-08-20T03:55:59;24.30;61.10
12329;DHT22;6230;52.390;10.256;2022-08-20T03:58:30;24.30;61.20
12329;DHT22;6230;52.390;10.256;2022-08-20T04:00:56;24.30;61.10
12329;DHT22;6230;52.390;10.256;2022-08-20T04:03:22;24.30;61.00
12329;DHT22;6230;52.390;10.256;2022-08-20T04:05:49;24.30;60.90
12329;DHT22;6230;52.390;10.256;2022-08-20T04:08:24;24.30;60.90
12329;DHT22;6230;52.390;10.256;2022-08-20T04:10:52;24.20;60.90
12329;DHT22;6230;52.390;10.256;2022-08-20T04:13:20;24.20;60.90
12329;DHT22;6230;52.390;10.256;2022-08-20T04:15:46;24.10;61.00
12329;DHT22;6230;52.390;10.256;2022-08-20T04:18:13;24.10;61.10
12329;DHT22;6230;52.390;10.256;2022-08-20T04:20:41;24.10;61.10
12329;DHT22;6230;52.390;10.256;2022-08-20T04:23:07;24.10;61.00
12329;DHT22;6230;52.390;10.256;2022-08-20T04:25:35;24.10;61.00
12329;DHT22;6230;52.390;10.256;2022-08-20T04:28:03;24.10;61.00
12329;DHT22;6230;52.390;10.256;2022-08-20T04:30:31;24.10;61.10
12329;DHT22;6230;52.390;10.256;2022-08-20T04:32:58;24.10;61.20
12329;DHT22;6230;52.390;10.256;2022-08-20T04:35:24;24.10;61.30
12329;DHT22;6230;52.390;10.256;2022-08-20T04:38:04;24.10;61.40
12329;DHT22;6230;52.390;10.256;2022-08-20T04:40:31;24.10;61.40
12329;DHT22;6230;52.390;10.256;2022-08-20T04:43:16;24.00;61.40
12329;DHT22;6230;52.390;10.256;2022-08-20T04:45:44;24.00;61.40
12329;DHT22;6230;52.390;10.256;2022-08-20T04:48:11;24.00;61.40
12329;DHT22;6230;52.390;10.256;2022-08-20T04:50:39;24.00;61.40
12329;DHT22;6230;52.390;10.256;2022-08-20T04:53:07;23.90;61.30
12329;DHT22;6230;52.390;10.256;2022-08-20T04:55:34;23.90;61.30
12329;DHT22;6230;52.390;10.256;2022-08-20T04:58:05;23.90;61.30
12329;DHT22;6230;52.390;10.256;2022-08-20T05:00:32;23.90;61.30
12329;DHT22;6230;52.390;10.256;2022-08-20T05:02:57;23.90;61.30
12329;DHT22;6230;52.390;10.256;2022-08-20T05:05:23;23.90;61.30
12329;DHT22;6230;52.390;10.256;2022-08-20T05:07:50;23.90;61.40
12329;DHT22;6230;52.390;10.256;2022-08-20T05:10:18;23.90;61.50
12329;DHT22;6230;52.390;10.256;2022-08-20T05:12:44;23.90;61.50
12329;DHT22;6230;52.390;10.256;2022-08-20T05:15:11;23.90;61.40
12329;DHT22;6230;52.390;10.256;2022-08-20T05:17:39;23.90;61.40
12329;DHT22;6230;52.390;10.256;2022-08-20T05:20:06;23.80;61.50
12329;DHT22;6230;52.390;10.256;2022-08-20T05:22:33;23.80;61.60
12329;DHT22;6230;52.390;10.256;2022-08-20T05:24:58;23.80;61.70
12329;DHT22;6230;52.390;10.256;2022-08-20T05:27:26;23.70;61.80
12329;DHT22;6230;52.390;10.256;2022-08-20T05:29:53;23.70;62.00
12329;DHT22;6230;52.390;10.256;2022-08-20T05:32:20;23.70;62.10
12329;DHT22;6230;52.390;10.256;2022-08-20T05:34:46;23.70;62.10
12329;DHT22;6230;52.390;10.256;2022-08-20T05:37:12;23.70;62.10
12329;DHT22;6230;52.390;10.256;2022-08-20T05:39:37;23.70;62.10
12329;DHT22;6230;52.390;10.256;2022-08-20T05:42:03;23.60;62.00
12329;DHT22;6230;52.390;10.256;2022-08-20T05:44:29;23.60;62.00
12329;DHT22;6230;52.390;10.256;2022-08-20T05:46:55;23.60;62.00
12329;DHT22;6230;52.390;10.256;2022-08-20T05:49:21;23.60;61.90
12329;DHT22;6230;52.390;10.256;2022-08-20T05:51:48;23.50;61.70
12329;DHT22;6230;52.390;10.256;2022-08-20T05:54:15;23.50;61.80
12329;DHT22;6230;52.390;10.256;2022-08-20T05:56:41;23.50;62.00
12329;DHT22;6230;52.390;10.256;2022-08-20T05:59:07;23.50;62.10
12329;DHT22;6230;52.390;10.256;2022-08-20T06:01:35;23.50;62.10
12329;DHT22;6230;52.390;10.256;2022-08-20T06:04:02;23.50;62.20
12329;DHT22;6230;52.390;10.256;2022-08-20T06:06:46;23.50;62.30
12329;DHT22;6230;52.390;10.256;2022-08-20T06:09:14;23.50;62.50
12329;DHT22;6230;52.390;10.256;2022-08-20T06:11:40;23.50;62.80
12329;DHT22;6230;52.390;10.256;2022-08-20T06:14:05;23.50;62.80
12329;DHT22;6230;52.390;10.256;2022-08-20T06:16:31;23.50;63.10
12329;DHT22;6230;52.390;10.256;2022-08-20T06:18:57;23.50;63.20
12329;DHT22;6230;52.390;10.256;2022-08-20T06:21:22;23.50;63.40
12329;DHT22;6230;52.390;10.256;2022-08-20T06:23:48;23.50;63.40
12329;DHT22;6230;52.390;10.256;2022-08-20T06:26:14;23.50;63.50
12329;DHT22;6230;52.390;10.256;2022-08-20T06:28:39;23.50;63.50
12329;DHT22;6230;52.390;10.256;2022-08-20T06:31:05;23.60;63.60
12329;DHT22;6230;52.390;10.256;2022-08-20T06:33:32;23.60;63.70
12329;DHT22;6230;52.390;10.256;2022-08-20T06:35:57;23.60;63.90
12329;DHT22;6230;52.390;10.256;2022-08-20T06:38:23;23.60;63.90
12329;DHT22;6230;52.390;10.256;2022-08-20T06:40:49;23.70;64.00
12329;DHT22;6230;52.390;10.256;2022-08-20T06:43:15;23.70;64.10
12329;DHT22;6230;52.390;10.256;2022-08-20T06:45:41;23.80;64.10
12329;DHT22;6230;52.390;10.256;2022-08-20T06:48:11;23.90;64.20
12329;DHT22;6230;52.390;10.256;2022-08-20T06:50:40;24.00;64.40
12329;DHT22;6230;52.390;10.256;2022-08-20T06:53:08;24.00;64.10
12329;DHT22;6230;52.390;10.256;2022-08-20T06:55:36;24.10;63.80
12329;DHT22;6230;52.390;10.256;2022-08-20T06:58:05;24.20;63.70
12329;DHT22;6230;52.390;10.256;2022-08-20T07:00:33;24.20;63.50
12329;DHT22;6230;52.390;10.256;2022-08-20T07:03:00;24.30;63.40
12329;DHT22;6230;52.390;10.256;2022-08-20T07:05:27;24.30;63.40
12329;DHT22;6230;52.390;10.256;2022-08-20T07:07:53;24.30;63.10
12329;DHT22;6230;52.390;10.256;2022-08-20T07:10:20;24.30;63.10
12329;DHT22;6230;52.390;10.256;2022-08-20T07:12:46;24.30;63.20
12329;DHT22;6230;52.390;10.256;2022-08-20T07:15:14;24.30;63.10
12329;DHT22;6230;52.390;10.256;2022-08-20T07:17:40;24.30;63.10
12329;DHT22;6230;52.390;10.256;2022-08-20T07:20:12;24.30;63.20
12329;DHT22;6230;52.390;10.256;2022-08-20T07:22:38;24.30;63.40
12329;DHT22;6230;52.390;10.256;2022-08-20T07:25:06;24.30;63.40
12329;DHT22;6230;52.390;10.256;2022-08-20T07:27:33;24.30;63.40
12329;DHT22;6230;52.390;10.256;2022-08-20T07:29:59;24.40;64.10
12329;DHT22;6230;52.390;10.256;2022-08-20T07:32:44;24.40;63.20
12329;DHT22;6230;52.390;10.256;2022-08-20T07:35:15;24.40;63.30
12329;DHT22;6230;52.390;10.256;2022-08-20T07:37:44;24.50;63.30
12329;DHT22;6230;52.390;10.256;2022-08-20T07:40:16;24.50;63.10
12329;DHT22;6230;52.390;10.256;2022-08-20T07:42:42;24.50;63.10
12329;DHT22;6230;52.390;10.256;2022-08-20T07:45:10;24.60;63.10
12329;DHT22;6230;52.390;10.256;2022-08-20T07:47:37;24.60;63.10
12329;DHT22;6230;52.390;10.256;2022-08-20T07:50:04;24.70;63.00
12329;DHT22;6230;52.390;10.256;2022-08-20T07:52:31;24.70;63.00
12329;DHT22;6230;52.390;10.256;2022-08-20T07:55:06;24.80;62.90
12329;DHT22;6230;52.390;10.256;2022-08-20T07:57:33;24.90;63.80
12329;DHT22;6230;52.390;10.256;2022-08-20T07:59:58;24.90;62.90
12329;DHT22;6230;52.390;10.256;2022-08-20T08:02:25;25.00;62.90
12329;DHT22;6230;52.390;10.256;2022-08-20T08:04:51;25.00;62.90
12329;DHT22;6230;52.390;10.256;2022-08-20T08:07:17;25.00;62.70
12329;DHT22;6230;52.390;10.256;2022-08-20T08:09:43;25.00;62.60
12329;DHT22;6230;52.390;10.256;2022-08-20T08:12:10;25.00;62.50
12329;DHT22;6230;52.390;10.256;2022-08-20T08:14:39;25.00;62.40
12329;DHT22;6230;52.390;10.256;2022-08-20T08:17:06;25.10;62.30
12329;DHT22;6230;52.390;10.256;2022-08-20T08:19:37;25.10;62.10
12329;DHT22;6230;52.390;10.256;2022-08-20T08:22:14;25.20;62.00
12329;DHT22;6230;52.390;10.256;2022-08-20T08:24:41;25.10;62.00
12329;DHT22;6230;52.390;10.256;2022-08-20T08:27:08;25.20;62.00
12329;DHT22;6230;52.390;10.256;2022-08-20T08:29:35;25.20;61.70
12329;DHT22;6230;52.390;10.256;2022-08-20T08:32:02;25.30;61.70
12329;DHT22;6230;52.390;10.256;2022-08-20T08:34:30;25.30;61.40
12329;DHT22;6230;52.390;10.256;2022-08-20T08:36:56;25.40;61.20
12329;DHT22;6230;52.390;10.256;2022-08-20T08:39:23;25.40;60.80
12329;DHT22;6230;52.390;10.256;2022-08-20T08:41:49;25.50;60.60
12329;DHT22;6230;52.390;10.256;2022-08-20T08:44:25;25.50;60.30
12329;DHT22;6230;52.390;10.256;2022-08-20T08:46:59;25.60;60.10
12329;DHT22;6230;52.390;10.256;2022-08-20T08:49:33;25.70;59.90
12329;DHT22;6230;52.390;10.256;2022-08-20T08:54:32;25.70;59.60
12329;DHT22;6230;52.390;10.256;2022-08-20T08:56:59;25.80;59.60
12329;DHT22;6230;52.390;10.256;2022-08-20T08:59:27;25.80;59.30
12329;DHT22;6230;52.390;10.256;2022-08-20T09:01:55;25.80;59.30
12329;DHT22;6230;52.390;10.256;2022-08-20T09:04:23;25.80;59.20
12329;DHT22;6230;52.390;10.256;2022-08-20T09:06:53;25.80;59.20
12329;DHT22;6230;52.390;10.256;2022-08-20T09:09:29;25.90;59.20
12329;DHT22;6230;52.390;10.256;2022-08-20T09:12:06;25.90;59.20
12329;DHT22;6230;52.390;10.256;2022-08-20T09:14:32;26.00;59.20
12329;DHT22;6230;52.390;10.256;2022-08-20T09:16:57;26.00;59.00
12329;DHT22;6230;52.390;10.256;2022-08-20T09:19:23;26.10;58.90
12329;DHT22;6230;52.390;10.256;2022-08-20T09:21:49;26.10;58.80
12329;DHT22;6230;52.390;10.256;2022-08-20T09:24:14;26.10;58.60
12329;DHT22;6230;52.390;10.256;2022-08-20T09:26:40;26.20;58.50
12329;DHT22;6230;52.390;10.256;2022-08-20T09:29:05;26.20;58.20
12329;DHT22;6230;52.390;10.256;2022-08-20T09:31:31;26.20;58.00
12329;DHT22;6230;52.390;10.256;2022-08-20T09:33:57;26.20;58.00
12329;DHT22;6230;52.390;10.256;2022-08-20T09:36:22;26.30;58.10
12329;DHT22;6230;52.390;10.256;2022-08-20T09:38:48;26.40;57.90
12329;DHT22;6230;52.390;10.256;2022-08-20T09:41:14;26.50;57.80
12329;DHT22;6230;52.390;10.256;2022-08-20T09:43:39;26.60;58.20
12329;DHT22;6230;52.390;10.256;2022-08-20T09:46:05;26.70;57.40
12329;DHT22;6230;52.390;10.256;2022-08-20T09:48:30;26.70;57.10
12329;DHT22;6230;52.390;10.256;2022-08-20T09:50:56;26.70;56.90
12329;DHT22;6230;52.390;10.256;2022-08-20T09:53:22;26.70;56.70
12329;DHT22;6230;52.390;10.256;2022-08-20T09:55:52;26.80;56.60
12329;DHT22;6230;52.390;10.256;2022-08-20T09:58:44;26.80;56.60
12329;DHT22;6230;52.390;10.256;2022-08-20T10:01:13;26.80;56.60
12329;DHT22;6230;52.390;10.256;2022-08-20T10:03:44;26.80;56.40
12329;DHT22;6230;52.390;10.256;2022-08-20T10:06:12;26.80;56.30
12329;DHT22;6230;52.390;10.256;2022-08-20T10:08:39;26.80;56.40
12329;DHT22;6230;52.390;10.256;2022-08-20T10:11:05;26.90;56.40
12329;DHT22;6230;52.390;10.256;2022-08-20T10:13:30;26.90;56.20
12329;DHT22;6230;52.390;10.256;2022-08-20T10:15:56;26.90;56.20
12329;DHT22;6230;52.390;10.256;2022-08-20T10:18:21;26.90;56.20
12329;DHT22;6230;52.390;10.256;2022-08-20T10:20:47;26.90;56.10
12329;DHT22;6230;52.390;10.256;2022-08-20T10:23:13;26.90;56.10
12329;DHT22;6230;52.390;10.256;2022-08-20T10:25:39;26.90;56.10
12329;DHT22;6230;52.390;10.256;2022-08-20T10:28:05;26.90;56.10
12329;DHT22;6230;52.390;10.256;2022-08-20T10:30:32;26.90;56.00
12329;DHT22;6230;52.390;10.256;2022-08-20T10:32:57;26.90;56.00
12329;DHT22;6230;52.390;10.256;2022-08-20T10:35:23;26.90;56.00
12329;DHT22;6230;52.390;10.256;2022-08-20T10:37:49;26.90;56.00
12329;DHT22;6230;52.390;10.256;2022-08-20T10:40:14;26.90;56.20
12329;DHT22;6230;52.390;10.256;2022-08-20T10:42:41;27.00;56.10
12329;DHT22;6230;52.390;10.256;2022-08-20T10:45:12;27.00;56.10
12329;DHT22;6230;52.390;10.256;2022-08-20T10:47:38;27.10;56.00
12329;DHT22;6230;52.390;10.256;2022-08-20T10:50:07;27.10;55.90
12329;DHT22;6230;52.390;10.256;2022-08-20T10:52:33;27.10;55.70
12329;DHT22;6230;52.390;10.256;2022-08-20T10:54:58;27.10;55.50
12329;DHT22;6230;52.390;10.256;2022-08-20T10:57:27;27.10;55.40
12329;DHT22;6230;52.390;10.256;2022-08-20T10:59:54;27.10;55.40
12329;DHT22;6230;52.390;10.256;2022-08-20T11:02:21;27.10;55.40
12329;DHT22;6230;52.390;10.256;2022-08-20T11:04:47;27.10;55.30
12329;DHT22;6230;52.390;10.256;2022-08-20T11:07:30;27.10;55.40
12329;DHT22;6230;52.390;10.256;2022-08-20T11:09:56;27.30;55.30
12329;DHT22;6230;52.390;10.256;2022-08-20T11:12:22;27.30;55.30
12329;DHT22;6230;52.390;10.256;2022-08-20T11:14:50;27.50;55.00
12329;DHT22;6230;52.390;10.256;2022-08-20T11:17:24;27.50;55.00
12329;DHT22;6230;52.390;10.256;2022-08-20T11:19:50;27.60;54.70
12329;DHT22;6230;52.390;10.256;2022-08-20T11:22:16;27.70;54.40
12329;DHT22;6230;52.390;10.256;2022-08-20T11:24:42;27.80;54.40
12329;DHT22;6230;52.390;10.256;2022-08-20T11:27:08;27.90;54.20
12329;DHT22;6230;52.390;10.256;2022-08-20T11:29:36;28.00;54.00
12329;DHT22;6230;52.390;10.256;2022-08-20T11:32:03;28.10;53.80
12329;DHT22;6230;52.390;10.256;2022-08-20T11:34:29;28.20;53.70
12329;DHT22;6230;52.390;10.256;2022-08-20T11:36:54;28.20;53.60
12329;DHT22;6230;52.390;10.256;2022-08-20T11:39:21;28.10;53.50
12329;DHT22;6230;52.390;10.256;2022-08-20T11:41:46;28.20;53.40
12329;DHT22;6230;52.390;10.256;2022-08-20T11:44:12;28.20;53.30
12329;DHT22;6230;52.390;10.256;2022-08-20T11:46:37;28.20;53.20
12329;DHT22;6230;52.390;10.256;2022-08-20T11:49:03;28.20;53.00
12329;DHT22;6230;52.390;10.256;2022-08-20T11:51:29;28.20;53.00
12329;DHT22;6230;52.390;10.256;2022-08-20T11:53:54;28.20;53.60
12329;DHT22;6230;52.390;10.256;2022-08-20T11:56:20;28.10;52.80
12329;DHT22;6230;52.390;10.256;2022-08-20T11:58:46;28.10;52.80
12329;DHT22;6230;52.390;10.256;2022-08-20T12:01:12;28.00;52.90
12329;DHT22;6230;52.390;10.256;2022-08-20T12:03:38;28.00;52.90
12329;DHT22;6230;52.390;10.256;2022-08-20T12:06:04;28.00;52.80
12329;DHT22;6230;52.390;10.256;2022-08-20T12:08:29;27.90;52.70
12329;DHT22;6230;52.390;10.256;2022-08-20T12:10:57;27.90;52.70
12329;DHT22;6230;52.390;10.256;2022-08-20T12:13:24;27.80;52.70
12329;DHT22;6230;52.390;10.256;2022-08-20T12:15:53;27.70;53.10
12329;DHT22;6230;52.390;10.256;2022-08-20T12:18:19;27.50;53.70
12329;DHT22;6230;52.390;10.256;2022-08-20T12:20:44;27.40;54.50
12329;DHT22;6230;52.390;10.256;2022-08-20T12:23:10;27.10;55.10
12329;DHT22;6230;52.390;10.256;2022-08-20T12:25:36;26.90;55.90
12329;DHT22;6230;52.390;10.256;2022-08-20T12:28:02;26.70;56.60
12329;DHT22;6230;52.390;10.256;2022-08-20T12:30:30;26.60;57.30
12329;DHT22;6230;52.390;10.256;2022-08-20T12:32:56;26.50;57.80
12329;DHT22;6230;52.390;10.256;2022-08-20T12:35:22;26.40;58.00
12329;DHT22;6230;52.390;10.256;2022-08-20T12:37:47;26.40;58.20
12329;DHT22;6230;52.390;10.256;2022-08-20T12:40:17;26.40;58.50
12329;DHT22;6230;52.390;10.256;2022-08-20T12:42:43;26.30;58.70
12329;DHT22;6230;52.390;10.256;2022-08-20T12:45:09;26.30;58.90
12329;DHT22;6230;52.390;10.256;2022-08-20T12:47:38;26.30;59.10
12329;DHT22;6230;52.390;10.256;2022-08-20T12:50:13;26.20;59.20
12329;DHT22;6230;52.390;10.256;2022-08-20T12:52:41;26.10;59.50
12329;DHT22;6230;52.390;10.256;2022-08-20T12:55:09;26.00;59.60
12329;DHT22;6230;52.390;10.256;2022-08-20T12:57:42;26.00;59.90
12329;DHT22;6230;52.390;10.256;2022-08-20T13:00:10;26.00;60.00
12329;DHT22;6230;52.390;10.256;2022-08-20T13:02:39;26.00;60.00
12329;DHT22;6230;52.390;10.256;2022-08-20T13:05:09;25.90;60.20
12329;DHT22;6230;52.390;10.256;2022-08-20T13:07:36;25.90;60.00
12329;DHT22;6230;52.390;10.256;2022-08-20T13:10:03;25.80;60.00
12329;DHT22;6230;52.390;10.256;2022-08-20T13:12:30;25.80;60.10
12329;DHT22;6230;52.390;10.256;2022-08-20T13:14:55;25.90;60.00
12329;DHT22;6230;52.390;10.256;2022-08-20T13:17:21;25.90;60.60
12329;DHT22;6230;52.390;10.256;2022-08-20T13:19:47;26.00;59.80
12329;DHT22;6230;52.390;10.256;2022-08-20T13:22:13;26.10;59.90
12329;DHT22;6230;52.390;10.256;2022-08-20T13:24:40;26.20;60.00
12329;DHT22;6230;52.390;10.256;2022-08-20T13:27:06;26.40;60.10
12329;DHT22;6230;52.390;10.256;2022-08-20T13:29:33;26.60;59.80
12329;DHT22;6230;52.390;10.256;2022-08-20T13:31:59;26.80;59.50
12329;DHT22;6230;52.390;10.256;2022-08-20T13:34:25;27.00;59.10
12329;DHT22;6230;52.390;10.256;2022-08-20T13:36:50;27.20;58.70
12329;DHT22;6230;52.390;10.256;2022-08-20T13:39:16;27.30;58.20
12329;DHT22;6230;52.390;10.256;2022-08-20T13:41:41;27.40;57.70
12329;DHT22;6230;52.390;10.256;2022-08-20T13:44:08;27.50;57.50
12329;DHT22;6230;52.390;10.256;2022-08-20T13:46:34;27.50;57.30
12329;DHT22;6230;52.390;10.256;2022-08-20T13:49:00;27.60;57.20
12329;DHT22;6230;52.390;10.256;2022-08-20T13:51:25;27.60;57.10
12329;DHT22;6230;52.390;10.256;2022-08-20T13:53:51;27.60;56.80
12329;DHT22;6230;52.390;10.256;2022-08-20T13:56:16;27.60;57.30
12329;DHT22;6230;52.390;10.256;2022-08-20T13:58:42;27.60;56.70
12329;DHT22;6230;52.390;10.256;2022-08-20T14:01:08;27.60;56.60
12329;DHT22;6230;52.390;10.256;2022-08-20T14:03:33;27.60;56.70
12329;DHT22;6230;52.390;10.256;2022-08-20T14:06:00;27.70;56.80
12329;DHT22;6230;52.390;10.256;2022-08-20T14:08:26;27.80;56.90
12329;DHT22;6230;52.390;10.256;2022-08-20T14:10:52;27.90;56.70
12329;DHT22;6230;52.390;10.256;2022-08-20T14:13:21;28.20;56.70
12329;DHT22;6230;52.390;10.256;2022-08-20T14:15:46;28.30;56.50
12329;DHT22;6230;52.390;10.256;2022-08-20T14:18:13;28.40;56.10
12329;DHT22;6230;52.390;10.256;2022-08-20T14:20:40;28.50;55.50
12329;DHT22;6230;52.390;10.256;2022-08-20T14:23:05;28.60;55.30
12329;DHT22;6230;52.390;10.256;2022-08-20T14:25:31;28.70;54.90
12329;DHT22;6230;52.390;10.256;2022-08-20T14:27:58;28.70;54.30
12329;DHT22;6230;52.390;10.256;2022-08-20T14:30:28;28.70;53.80
12329;DHT22;6230;52.390;10.256;2022-08-20T14:32:55;28.70;53.40
12329;DHT22;6230;52.390;10.256;2022-08-20T14:35:21;28.60;53.50
12329;DHT22;6230;52.390;10.256;2022-08-20T14:37:50;28.60;53.50
12329;DHT22;6230;52.390;10.256;2022-08-20T14:40:22;28.60;53.50
12329;DHT22;6230;52.390;10.256;2022-08-20T14:42:48;28.60;53.30
12329;DHT22;6230;52.390;10.256;2022-08-20T14:45:15;28.60;53.40
12329;DHT22;6230;52.390;10.256;2022-08-20T14:47:43;28.60;53.30
12329;DHT22;6230;52.390;10.256;2022-08-20T14:50:16;28.60;53.40
12329;DHT22;6230;52.390;10.256;2022-08-20T14:52:42;28.70;53.20
12329;DHT22;6230;52.390;10.256;2022-08-20T14:55:12;28.70;53.20
12329;DHT22;6230;52.390;10.256;2022-08-20T14:57:38;28.70;53.10
12329;DHT22;6230;52.390;10.256;2022-08-20T15:00:06;28.60;53.00
12329;DHT22;6230;52.390;10.256;2022-08-20T15:02:34;28.60;52.80
12329;DHT22;6230;52.390;10.256;2022-08-20T15:04:59;28.60;52.90
12329;DHT22;6230;52.390;10.256;2022-08-20T15:07:31;28.50;52.70
12329;DHT22;6230;52.390;10.256;2022-08-20T15:09:58;28.50;52.60
12329;DHT22;6230;52.390;10.256;2022-08-20T15:12:25;28.50;52.50
12329;DHT22;6230;52.390;10.256;2022-08-20T15:14:51;28.50;52.50
12329;DHT22;6230;52.390;10.256;2022-08-20T15:17:22;28.40;52.60
12329;DHT22;6230;52.390;10.256;2022-08-20T15:19:49;28.50;52.70
12329;DHT22;6230;52.390;10.256;2022-08-20T15:22:15;28.40;52.50
12329;DHT22;6230;52.390;10.256;2022-08-20T15:24:41;28.40;52.50
12329;DHT22;6230;52.390;10.256;2022-08-20T15:27:15;28.40;52.40
12329;DHT22;6230;52.390;10.256;2022-08-20T15:29:41;28.40;52.20
12329;DHT22;6230;52.390;10.256;2022-08-20T15:32:07;28.40;52.10
12329;DHT22;6230;52.390;10.256;2022-08-20T15:34:34;28.40;52.00
12329;DHT22;6230;52.390;10.256;2022-08-20T15:37:18;28.40;52.00
12329;DHT22;6230;52.390;10.256;2022-08-20T15:39:45;28.40;51.70
12329;DHT22;6230;52.390;10.256;2022-08-20T15:42:12;28.30;51.80